createdAt,value
2022-09-28T00:01:15.626Z,96300.39
2022-09-28T00:03:48.068Z,96295.79
2022-09-28T00:06:22.371Z,96299.27
2022-09-28T00:08:54.393Z,96298.52
2022-09-28T00:11:29.176Z,96301.81
2022-09-28T00:14:03.667Z,96297.78
2022-09-28T00:16:37.596Z,96297.30
2022-09-28T00:19:09.276Z,96299.81
2022-09-28T00:21:43.099Z,96299.72
2022-09-28T00:24:19.051Z,96301.50
2022-09-28T00:26:52.784Z,96300.39
2022-09-28T00:29:27.262Z,96307.08
2022-09-28T00:32:02.926Z,96305.75
2022-09-28T00:34:37.043Z,96307.63
2022-09-28T00:37:09.806Z,96305.52
2022-09-28T00:39:43.415Z,96306.76
2022-09-28T00:42:18.038Z,96302.02
2022-09-28T00:44:53.866Z,96295.30
2022-09-28T00:47:38.354Z,96293.52
2022-09-28T00:50:15.585Z,96292.26
2022-09-28T00:52:49.922Z,96290.48
2022-09-28T00:55:26.271Z,96288.15
2022-09-28T00:58:02.310Z,96290.80
2022-09-28T01:00:34.129Z,96290.20
2022-09-28T01:03:06.493Z,96288.33
2022-09-28T01:05:40.188Z,96285.54
2022-09-28T01:08:13.334Z,96289.79
2022-09-28T01:10:44.889Z,96290.11
2022-09-28T01:13:18.634Z,96291.87
2022-09-28T01:15:58.901Z,96290.33
2022-09-28T01:18:41.191Z,96290.27
2022-09-28T01:21:17.637Z,96293.73
2022-09-28T01:24:22.728Z,96295.61
2022-09-28T01:27:06.578Z,96299.95
2022-09-28T01:29:47.632Z,96300.55
2022-09-28T01:32:33.482Z,96296.77
2022-09-28T01:35:09.884Z,96297.22
2022-09-28T01:37:52.960Z,96292.25
2022-09-28T01:40:27.210Z,96289.21
2022-09-28T01:43:04.050Z,96289.27
2022-09-28T01:45:42.500Z,96292.98
2022-09-28T01:48:18.584Z,96294.70
2022-09-28T01:50:55.937Z,96299.20
2022-09-28T01:53:33.105Z,96299.00
2022-09-28T01:56:14.345Z,96300.56
2022-09-28T01:58:50.579Z,96302.92
2022-09-28T02:01:28.366Z,96303.50
2022-09-28T02:04:07.192Z,96303.74
2022-09-28T02:06:42.940Z,96302.52
2022-09-28T02:09:20.117Z,96304.38
2022-09-28T02:11:57.499Z,96307.53
2022-09-28T02:14:30.563Z,96308.36
2022-09-28T02:17:02.383Z,96308.05
2022-09-28T02:19:36.485Z,96311.89
2022-09-28T02:22:16.966Z,96309.85
2022-09-28T02:24:54.744Z,96308.54
2022-09-28T02:27:36.127Z,96314.91
2022-09-28T02:30:10.039Z,96320.00
2022-09-28T02:32:47.082Z,96315.52
2022-09-28T02:35:20.649Z,96321.88
2022-09-28T02:37:52.355Z,96322.95
2022-09-28T02:40:29.366Z,96323.76
2022-09-28T02:43:09.601Z,96321.99
2022-09-28T02:45:52.066Z,96318.36
2022-09-28T02:48:43.956Z,96314.50
2022-09-28T02:51:27.644Z,96309.12
2022-09-28T02:54:28.179Z,96306.45
2022-09-28T02:57:11.320Z,96306.85
2022-09-28T03:00:03.015Z,96310.53
2022-09-28T03:02:41.940Z,96304.80
2022-09-28T03:05:23.612Z,96301.39
2022-09-28T03:08:00.211Z,96299.23
2022-09-28T03:10:39.322Z,96301.24
2022-09-28T03:13:12.651Z,96303.13
2022-09-28T03:15:48.502Z,96304.79
2022-09-28T03:18:20.521Z,96307.36
2022-09-28T03:20:50.602Z,96305.63
2022-09-28T03:23:25.608Z,96307.21
2022-09-28T03:25:57.378Z,96309.45
2022-09-28T03:28:28.202Z,96310.14
2022-09-28T03:30:59.820Z,96310.59
2022-09-28T03:33:29.949Z,96314.60
2022-09-28T03:36:01.518Z,96315.34
2022-09-28T03:38:33.681Z,96313.73
2022-09-28T03:41:05.756Z,96315.13
2022-09-28T03:43:39.487Z,96313.23
2022-09-28T03:46:09.605Z,96313.08
2022-09-28T03:48:45.330Z,96315.66
2022-09-28T03:51:15.330Z,96317.10
2022-09-28T03:53:46.788Z,96321.40
2022-09-28T03:56:17.472Z,96317.39
2022-09-28T03:58:48.921Z,96318.02
2022-09-28T04:01:19.063Z,96318.34
2022-09-28T04:03:56.139Z,96319.77
2022-09-28T04:06:28.752Z,96329.25
2022-09-28T04:09:00.941Z,96329.41
2022-09-28T04:11:47.651Z,96327.08
2022-09-28T04:14:25.213Z,96330.65
2022-09-28T04:16:57.544Z,96325.17
2022-09-28T04:19:30.988Z,96324.76
2022-09-28T04:22:21.301Z,96326.54
2022-09-28T04:24:52.782Z,96327.63
2022-09-28T04:27:42.059Z,96327.48
2022-09-28T04:30:15.696Z,96328.27
2022-09-28T04:32:50.157Z,96325.56
2022-09-28T04:35:22.331Z,96326.96
2022-09-28T04:37:53.988Z,96323.20
2022-09-28T04:40:24.135Z,96330.23
2022-09-28T04:42:59.029Z,96332.23
2022-09-28T04:45:30.710Z,96333.38
2022-09-28T04:48:09.924Z,96333.63
2022-09-28T04:51:01.397Z,96332.34
2022-09-28T04:53:32.904Z,96328.38
2022-09-28T04:56:06.300Z,96331.88
2022-09-28T04:58:38.644Z,96328.14
2022-09-28T05:01:14.739Z,96331.98
2022-09-28T05:04:04.631Z,96332.94
2022-09-28T05:06:42.831Z,96334.36
2022-09-28T05:09:12.805Z,96336.63
2022-09-28T05:11:44.276Z,96334.39
2022-09-28T05:14:21.907Z,96337.46
2022-09-28T05:16:53.457Z,96336.23
2022-09-28T05:19:31.368Z,96335.82
2022-09-28T05:22:11.334Z,96336.83
2022-09-28T05:24:46.472Z,96340.23
2022-09-28T05:27:19.780Z,96340.40
2022-09-28T05:29:59.649Z,96338.97
2022-09-28T05:33:06.854Z,96333.45
2022-09-28T05:35:55.146Z,96329.93
2022-09-28T05:38:29.156Z,96332.23
2022-09-28T05:41:05.736Z,96335.97
2022-09-28T05:43:38.443Z,96336.31
2022-09-28T05:46:10.202Z,96332.08
2022-09-28T05:48:44.647Z,96327.96
2022-09-28T05:51:14.655Z,96326.02
2022-09-28T05:53:46.175Z,96321.90
2022-09-28T05:56:22.206Z,96315.73
2022-09-28T05:58:54.862Z,96315.64
2022-09-28T06:01:27.879Z,96316.48
2022-09-28T06:04:01.621Z,96325.13
2022-09-28T06:06:33.078Z,96337.79
2022-09-28T06:09:05.400Z,96343.45
2022-09-28T06:11:49.374Z,96341.94
2022-09-28T06:14:29.869Z,96341.05
2022-09-28T06:16:59.929Z,96341.67
2022-09-28T06:19:31.444Z,96338.02
2022-09-28T06:22:29.466Z,96333.19
2022-09-28T06:25:10.381Z,96338.32
2022-09-28T06:27:43.361Z,96341.13
2022-09-28T06:30:17.160Z,96337.80
2022-09-28T06:32:49.842Z,96335.71
2022-09-28T06:35:21.850Z,96338.84
2022-09-28T06:37:53.817Z,96341.05
2022-09-28T06:40:26.511Z,96339.89
2022-09-28T06:42:59.738Z,96346.61
2022-09-28T06:45:55.719Z,96341.05
2022-09-28T06:48:47.205Z,96336.81
2022-09-28T06:51:24.993Z,96336.26
2022-09-28T06:54:06.163Z,96333.13
2022-09-28T06:56:58.078Z,96329.48
2022-09-28T06:59:29.863Z,96330.44
2022-09-28T07:02:02.491Z,96329.02
2022-09-28T07:04:52.692Z,96329.58
2022-09-28T07:08:03.777Z,96323.39
2022-09-28T07:11:06.354Z,96322.37
2022-09-28T07:13:57.628Z,96321.48
2022-09-28T07:16:46.131Z,96322.02
2022-09-28T07:19:19.988Z,96318.77
2022-09-28T07:22:01.968Z,96322.14
2022-09-28T07:24:36.888Z,96317.33
2022-09-28T07:27:38.244Z,96322.19
2022-09-28T07:30:35.883Z,96329.90
2022-09-28T07:33:34.034Z,96330.92
2022-09-28T07:36:25.924Z,96329.63
2022-09-28T07:38:57.975Z,96330.02
2022-09-28T07:41:33.805Z,96336.77
2022-09-28T07:44:07.872Z,96338.64
2022-09-28T07:46:41.041Z,96338.67
2022-09-28T07:49:19.655Z,96332.06
2022-09-28T07:52:10.732Z,96333.98
2022-09-28T07:55:06.663Z,96334.69
2022-09-28T07:58:01.714Z,96327.75
2022-09-28T08:00:52.961Z,96327.38
2022-09-28T08:03:24.457Z,96329.41
2022-09-28T08:06:01.176Z,96324.52
2022-09-28T08:08:34.328Z,96325.57
2022-09-28T08:11:10.239Z,96324.29
2022-09-28T08:14:00.667Z,96325.44
2022-09-28T08:16:53.191Z,96327.39
2022-09-28T08:19:56.802Z,96325.04
2022-09-28T08:22:30.294Z,96328.14
2022-09-28T08:25:01.852Z,96332.11
2022-09-28T08:27:34.010Z,96331.04
2022-09-28T08:30:09.181Z,96331.38
2022-09-28T08:32:56.693Z,96335.27
2022-09-28T08:35:47.005Z,96331.27
2022-09-28T08:38:37.154Z,96330.33
2022-09-28T08:41:36.889Z,96325.61
2022-09-28T08:44:24.006Z,96326.88
2022-09-28T08:47:42.910Z,96323.52
2022-09-28T08:50:53.156Z,96321.18
2022-09-28T08:53:45.710Z,96320.38
2022-09-28T08:56:25.274Z,96318.67
2022-09-28T08:59:01.074Z,96320.38
2022-09-28T09:01:38.202Z,96316.69
2022-09-28T09:04:13.585Z,96314.64
2022-09-28T09:07:19.612Z,96313.58
2022-09-28T09:10:20.679Z,96319.14
2022-09-28T09:13:01.255Z,96321.40
2022-09-28T09:15:48.546Z,96320.75
2022-09-28T09:18:44.093Z,96324.91
2022-09-28T09:21:42.351Z,96323.08
2022-09-28T09:24:27.054Z,96320.10
2022-09-28T09:27:15.470Z,96315.09
2022-09-28T09:30:01.424Z,96316.70
2022-09-28T09:32:54.219Z,96320.96
2022-09-28T09:35:41.925Z,96320.10
2022-09-28T09:39:06.083Z,96317.85
2022-09-28T09:42:12.131Z,96327.56
2022-09-28T09:45:26.245Z,96329.23
2022-09-28T09:48:16.303Z,96330.96
2022-09-28T09:50:52.265Z,96333.91
2022-09-28T09:53:29.909Z,96332.02
2022-09-28T09:56:07.441Z,96331.96
2022-09-28T09:58:49.945Z,96330.36
2022-09-28T10:01:34.384Z,96324.56
2022-09-28T10:04:36.126Z,96318.54
2022-09-28T10:07:21.745Z,96322.02
2022-09-28T10:09:58.239Z,96314.93
2022-09-28T10:12:43.867Z,96315.25
2022-09-28T10:15:20.136Z,96319.08
2022-09-28T10:18:03.019Z,96313.05
2022-09-28T10:20:54.167Z,96307.91
2022-09-28T10:23:38.989Z,96304.60
2022-09-28T10:26:16.071Z,96298.04
2022-09-28T10:28:53.130Z,96296.09
2022-09-28T10:31:43.020Z,96299.59
2022-09-28T10:34:30.843Z,96303.94
2022-09-28T10:37:12.468Z,96305.44
2022-09-28T10:40:21.742Z,96302.71
2022-09-28T10:43:00.425Z,96302.66
2022-09-28T10:45:36.116Z,96295.77
2022-09-28T10:48:16.858Z,96293.87
2022-09-28T10:51:00.139Z,96296.79
2022-09-28T10:53:31.831Z,96298.16
2022-09-28T10:56:25.261Z,96289.57
2022-09-28T10:59:23.357Z,96284.69
2022-09-28T11:02:00.873Z,96298.05
2022-09-28T11:04:44.412Z,96292.40
2022-09-28T11:07:22.556Z,96290.13
2022-09-28T11:09:56.446Z,96282.14
2022-09-28T11:12:32.422Z,96282.80
2022-09-28T11:15:07.348Z,96279.45
2022-09-28T11:17:42.005Z,96276.77
2022-09-28T11:20:35.514Z,96271.98
2022-09-28T11:23:27.498Z,96263.13
2022-09-28T11:26:03.991Z,96258.27
2022-09-28T11:28:37.507Z,96249.83
2022-09-28T11:31:14.935Z,96255.14
2022-09-28T11:34:15.890Z,96264.46
2022-09-28T11:37:27.526Z,96260.52
2022-09-28T11:40:12.421Z,96256.33
2022-09-28T11:42:54.300Z,96255.78
2022-09-28T11:45:38.719Z,96245.09
2022-09-28T11:48:15.585Z,96242.04
2022-09-28T11:50:53.105Z,96239.84
2022-09-28T11:53:46.065Z,96239.39
2022-09-28T11:56:26.952Z,96234.98
2022-09-28T11:59:02.511Z,96236.33
2022-09-28T12:01:48.316Z,96236.48
2022-09-28T12:04:32.933Z,96233.73
2022-09-28T12:07:15.964Z,96229.36
2022-09-28T12:09:55.481Z,96220.02
2022-09-28T12:12:33.407Z,96212.80
2022-09-28T12:15:18.883Z,96199.02
2022-09-28T12:18:00.260Z,96197.37
2022-09-28T12:20:35.104Z,96197.56
2022-09-28T12:23:14.451Z,96200.48
2022-09-28T12:25:49.172Z,96196.41
2022-09-28T12:28:27.813Z,96197.05
2022-09-28T12:31:02.028Z,96197.29
2022-09-28T12:33:54.886Z,96196.36
2022-09-28T12:39:57.681Z,96201.11
2022-09-28T12:42:53.000Z,96207.73
2022-09-28T12:45:59.731Z,96203.59
2022-09-28T12:49:33.175Z,96208.45
2022-09-28T12:51:52.782Z,96195.95
2022-09-28T12:54:54.181Z,96192.25
2022-09-28T12:58:01.762Z,96189.86
2022-09-28T13:00:48.706Z,96190.50
2022-09-28T13:03:41.209Z,96190.88
2022-09-28T13:06:37.493Z,96190.73
2022-09-28T13:09:24.580Z,96189.89
2022-09-28T13:12:06.144Z,96185.88
2022-09-28T13:14:58.956Z,96187.89
2022-09-28T13:17:44.629Z,96187.12
2022-09-28T13:20:30.129Z,96187.73
2022-09-28T13:23:12.483Z,96190.48
2022-09-28T13:25:48.796Z,96191.19
2022-09-28T13:28:27.027Z,96184.74
2022-09-28T13:31:02.189Z,96186.98
2022-09-28T13:33:37.059Z,96181.13
2022-09-28T13:36:47.994Z,96176.34
2022-09-28T13:39:46.426Z,96175.64
2022-09-28T13:42:44.230Z,96176.56
2022-09-28T13:45:39.093Z,96172.86
2022-09-28T13:48:17.725Z,96180.63
2022-09-28T13:51:11.026Z,96178.18
2022-09-28T13:53:59.027Z,96179.32
2022-09-28T13:56:38.135Z,96180.95
2022-09-28T13:59:20.798Z,96184.83
2022-09-28T14:02:05.682Z,96181.18
2022-09-28T14:05:01.055Z,96179.01
2022-09-28T14:07:59.683Z,96178.27
2022-09-28T14:10:49.785Z,96174.98
2022-09-28T14:13:56.222Z,96168.58
2022-09-28T14:16:31.118Z,96165.98
2022-09-28T14:19:08.042Z,96160.73
2022-09-28T14:22:07.936Z,96156.02
2022-09-28T14:24:59.345Z,96155.44
2022-09-28T14:28:04.947Z,96151.45
2022-09-28T14:30:51.448Z,96148.22
2022-09-28T14:33:29.143Z,96142.70
2022-09-28T14:36:04.659Z,96135.05
2022-09-28T14:39:03.263Z,96131.49
2022-09-28T14:41:37.678Z,96130.63
2022-09-28T14:44:12.156Z,96131.88
2022-09-28T14:47:11.377Z,96131.07
2022-09-28T14:50:02.605Z,96126.64
2022-09-28T14:52:47.664Z,96126.52
2022-09-28T14:55:25.691Z,96125.02
2022-09-28T14:58:05.617Z,96119.86
2022-09-28T15:00:39.393Z,96118.58
2022-09-28T15:03:14.346Z,96119.83
2022-09-28T15:05:48.225Z,96116.85
2022-09-28T15:08:22.526Z,96114.29
2022-09-28T15:10:54.233Z,96121.04
2022-09-28T15:13:28.201Z,96125.67
2022-09-28T15:16:05.422Z,96126.05
2022-09-28T15:19:01.524Z,96125.16
2022-09-28T15:21:42.028Z,96122.83
2022-09-28T15:24:33.667Z,96120.36
2022-09-28T15:27:15.756Z,96121.45
2022-09-28T15:29:58.919Z,96115.61
2022-09-28T15:32:32.236Z,96116.09
2022-09-28T15:35:20.552Z,96111.81
2022-09-28T15:37:52.922Z,96116.42
2022-09-28T15:40:33.162Z,96112.77
2022-09-28T15:43:13.436Z,96117.05
2022-09-28T15:45:52.637Z,96114.70
2022-09-28T15:48:32.404Z,96109.98
2022-09-28T15:51:10.812Z,96110.20
2022-09-28T15:53:56.056Z,96116.61
2022-09-28T15:56:28.422Z,96122.91
2022-09-28T15:59:27.474Z,96131.45
2022-09-28T16:02:16.061Z,96149.90
2022-09-28T16:04:51.739Z,96158.33
2022-09-28T16:07:28.602Z,96160.48
2022-09-28T16:10:03.313Z,96154.88
2022-09-28T16:12:46.137Z,96159.64
2022-09-28T16:15:21.784Z,96176.09
2022-09-28T16:17:55.965Z,96186.61
2022-09-28T16:20:32.037Z,96182.08
2022-09-28T16:23:18.389Z,96175.30
2022-09-28T16:25:53.902Z,96162.27
2022-09-28T16:28:48.989Z,96146.95
2022-09-28T16:31:29.693Z,96144.92
2022-09-28T16:34:11.670Z,96139.67
2022-09-28T16:36:45.561Z,96147.75
2022-09-28T16:39:18.217Z,96153.09
2022-09-28T16:41:53.744Z,96154.60
2022-09-28T16:44:28.439Z,96158.10
2022-09-28T16:47:01.187Z,96160.45
2022-09-28T16:49:33.927Z,96167.01
2022-09-28T16:52:10.178Z,96159.65
2022-09-28T16:54:59.044Z,96163.03
2022-09-28T16:57:30.567Z,96162.73
2022-09-28T17:00:01.423Z,96167.05
2022-09-28T17:02:46.256Z,96163.87
2022-09-28T17:05:19.358Z,96162.30
2022-09-28T17:07:56.607Z,96162.17
2022-09-28T17:10:45.040Z,96169.08
2022-09-28T17:13:31.384Z,96166.84
2022-09-28T17:16:06.254Z,96165.52
2022-09-28T17:18:39.030Z,96162.72
2022-09-28T17:21:15.783Z,96159.80
2022-09-28T17:23:49.248Z,96153.90
2022-09-28T17:26:27.275Z,96148.44
2022-09-28T17:28:59.358Z,96147.61
2022-09-28T17:31:31.358Z,96149.25
2022-09-28T17:34:03.028Z,96156.48
2022-09-28T17:36:35.202Z,96205.08
2022-09-28T17:39:07.457Z,96214.73
2022-09-28T17:41:40.197Z,96220.91
2022-09-28T17:44:15.180Z,96226.38
2022-09-28T17:46:49.429Z,96219.36
2022-09-28T17:49:21.136Z,96224.91
2022-09-28T17:51:52.912Z,96234.91
2022-09-28T17:54:25.966Z,96227.41
2022-09-28T17:56:58.274Z,96231.14
2022-09-28T17:59:29.875Z,96253.25
2022-09-28T18:02:02.583Z,96250.59
2022-09-28T18:04:51.191Z,96227.73
2022-09-28T18:07:23.532Z,96235.52
2022-09-28T18:09:58.306Z,96243.89
2022-09-28T18:12:30.148Z,96240.02
2022-09-28T18:15:01.969Z,96253.19
2022-09-28T18:17:34.063Z,96266.14
2022-09-28T18:20:06.762Z,96263.17
2022-09-28T18:22:39.123Z,96259.49
2022-09-28T18:25:12.962Z,96261.38
2022-09-28T18:27:44.740Z,96261.43
2022-09-28T18:30:16.557Z,96260.77
2022-09-28T18:32:48.419Z,96264.29
2022-09-28T18:35:23.123Z,96271.55
2022-09-28T18:37:55.303Z,96264.40
2022-09-28T18:40:27.964Z,96262.98
2022-09-28T18:42:59.943Z,96262.98
2022-09-28T18:45:31.813Z,96264.41
2022-09-28T18:48:03.739Z,96265.48
2022-09-28T18:50:35.687Z,96264.34
2022-09-28T18:53:13.484Z,96269.98
2022-09-28T18:55:45.765Z,96273.85
2022-09-28T18:58:17.702Z,96268.89
2022-09-28T19:00:49.613Z,96269.58
2022-09-28T19:03:21.484Z,96261.89
2022-09-28T19:05:53.445Z,96269.08
2022-09-28T19:08:27.686Z,96273.59
2022-09-28T19:11:08.293Z,96278.05
2022-09-28T19:13:40.443Z,96283.45
2022-09-28T19:16:14.105Z,96281.23
2022-09-28T19:18:45.748Z,96291.36
2022-09-28T19:21:17.866Z,96298.04
2022-09-28T19:23:50.161Z,96296.11
2022-09-28T19:26:23.492Z,96294.29
2022-09-28T19:28:56.155Z,96296.10
2022-09-28T19:31:28.347Z,96308.88
2022-09-28T19:34:00.262Z,96316.70
2022-09-28T19:36:32.557Z,96318.33
2022-09-28T19:39:04.226Z,96313.57
2022-09-28T19:41:44.448Z,96301.33
2022-09-28T19:44:25.087Z,96300.87
2022-09-28T19:46:59.868Z,96301.39
2022-09-28T19:49:33.189Z,96302.74
2022-09-28T19:52:13.402Z,96295.56
2022-09-28T19:54:55.730Z,96298.13
2022-09-28T19:57:28.743Z,96299.88
2022-09-28T20:00:03.120Z,96309.63
2022-09-28T20:02:39.327Z,96312.20
2022-09-28T20:05:09.648Z,96312.55
2022-09-28T20:07:41.114Z,96309.44
2022-09-28T20:10:11.975Z,96313.92
2022-09-28T20:12:43.404Z,96315.46
2022-09-28T20:15:13.426Z,96326.77
2022-09-28T20:17:44.903Z,96326.24
2022-09-28T20:20:15.001Z,96316.06
2022-09-28T20:22:46.503Z,96316.41
2022-09-28T20:25:43.943Z,96319.00
2022-09-28T20:28:31.401Z,96318.58
2022-09-28T20:31:21.556Z,96314.06
2022-09-28T20:33:53.526Z,96318.58
2022-09-28T20:36:26.355Z,96324.85
2022-09-28T20:38:58.375Z,96337.32
2022-09-28T20:41:35.484Z,96333.79
2022-09-28T20:44:07.927Z,96335.67
2022-09-28T20:46:39.758Z,96342.27
2022-09-28T20:49:11.321Z,96348.63
2022-09-28T20:51:41.677Z,96346.02
2022-09-28T20:54:13.206Z,96358.09
2022-09-28T20:56:43.188Z,96371.15
2022-09-28T20:59:15.049Z,96363.30
2022-09-28T21:01:46.651Z,96357.48
2022-09-28T21:04:18.112Z,96361.48
2022-09-28T21:06:48.271Z,96370.04
2022-09-28T21:09:19.681Z,96367.48
2022-09-28T21:11:51.124Z,96367.38
2022-09-28T21:14:24.023Z,96368.84
2022-09-28T21:16:55.593Z,96363.91
2022-09-28T21:19:25.636Z,96366.62
2022-09-28T21:21:57.270Z,96367.84
2022-09-28T21:24:29.085Z,96374.00
2022-09-28T21:27:00.570Z,96382.27
2022-09-28T21:29:31.520Z,96385.23
2022-09-28T21:32:03.268Z,96376.63
2022-09-28T21:34:35.991Z,96383.35
2022-09-28T21:37:07.934Z,96387.31
2022-09-28T21:39:39.422Z,96380.05
2022-09-28T21:42:09.454Z,96377.08
2022-09-28T21:44:41.086Z,96384.64
2022-09-28T21:47:11.155Z,96404.38
2022-09-28T21:49:42.654Z,96398.39
2022-09-28T21:52:12.797Z,96399.70
2022-09-28T21:54:44.735Z,96396.52
2022-09-28T21:57:16.562Z,96407.27
2022-09-28T21:59:48.287Z,96418.14
2022-09-28T22:02:21.997Z,96420.33
2022-09-28T22:04:53.500Z,96422.23
2022-09-28T22:07:25.105Z,96417.22
2022-09-28T22:09:56.573Z,96406.32
2022-09-28T22:12:26.595Z,96406.44
2022-09-28T22:14:58.169Z,96403.31
2022-09-28T22:17:28.256Z,96410.91
2022-09-28T22:19:59.759Z,96415.06
2022-09-28T22:22:29.757Z,96411.79
2022-09-28T22:25:01.812Z,96408.99
2022-09-28T22:27:33.601Z,96407.50
2022-09-28T22:30:05.566Z,96406.85
2022-09-28T22:32:37.054Z,96405.77
2022-09-28T22:35:09.766Z,96407.08
2022-09-28T22:37:41.244Z,96412.91
2022-09-28T22:40:12.698Z,96418.48
2022-09-28T22:42:44.161Z,96432.38
2022-09-28T22:45:14.283Z,96445.07
2022-09-28T22:47:45.797Z,96449.39
2022-09-28T22:50:16.007Z,96450.28
2022-09-28T22:52:48.432Z,96455.58
2022-09-28T22:55:19.927Z,96454.27
2022-09-28T22:57:49.928Z,96453.48
2022-09-28T23:00:22.203Z,96460.43
2022-09-28T23:02:53.709Z,96459.74
2022-09-28T23:05:23.809Z,96463.05
2022-09-28T23:07:55.245Z,96467.69
2022-09-28T23:10:26.830Z,96463.98
2022-09-28T23:12:59.207Z,96465.27
2022-09-28T23:15:30.690Z,96463.30
2022-09-28T23:18:00.705Z,96460.52
2022-09-28T23:20:32.731Z,96459.63
2022-09-28T23:23:04.259Z,96461.27
2022-09-28T23:25:34.304Z,96468.86
2022-09-28T23:28:05.804Z,96469.09
2022-09-28T23:30:36.168Z,96473.84
2022-09-28T23:33:07.888Z,96473.39
2022-09-28T23:35:39.333Z,96473.37
2022-09-28T23:38:11.145Z,96464.48
2022-09-28T23:40:42.711Z,96460.83
2022-09-28T23:43:14.325Z,96463.45
2022-09-28T23:45:46.033Z,96457.02
2022-09-28T23:48:17.487Z,96450.45
2022-09-28T23:50:48.933Z,96455.09
2022-09-28T23:53:18.892Z,96458.45
2022-09-28T23:55:50.423Z,96454.88
2022-09-28T23:58:20.537Z,96467.20
